sensor_id;sensor_type;location;lat;lon;timestamp;P1;durP1;ratioP1;P2;durP2;ratioP2
19032;SDS011;9649;51.042;13.804;2022-08-03T00:02:29;2.60;;;2.40;;
19032;SDS011;9649;51.042;13.804;2022-08-03T00:07:31;7.40;;;2.72;;
19032;SDS011;9649;51.042;13.804;2022-08-03T00:12:35;3.15;;;2.85;;
19032;SDS011;9649;51.042;13.804;2022-08-03T00:17:38;5.18;;;2.97;;
19032;SDS011;9649;51.042;13.804;2022-08-03T00:22:53;3.83;;;2.60;;
19032;SDS011;9649;51.042;13.804;2022-08-03T00:27:58;3.95;;;2.92;;
19032;SDS011;9649;51.042;13.804;2022-08-03T00:33:00;5.20;;;2.90;;
19032;SDS011;9649;51.042;13.804;2022-08-03T00:38:04;6.85;;;3.33;;
19032;SDS011;9649;51.042;13.804;2022-08-03T00:43:08;5.85;;;3.10;;
19032;SDS011;9649;51.042;13.804;2022-08-03T00:48:11;7.18;;;3.53;;
19032;SDS011;9649;51.042;13.804;2022-08-03T00:53:33;5.90;;;3.28;;
19032;SDS011;9649;51.042;13.804;2022-08-03T00:58:38;7.13;;;3.33;;
19032;SDS011;9649;51.042;13.804;2022-08-03T01:03:41;4.93;;;3.97;;
19032;SDS011;9649;51.042;13.804;2022-08-03T01:08:45;6.82;;;4.13;;
19032;SDS011;9649;51.042;13.804;2022-08-03T01:13:56;9.82;;;4.90;;
19032;SDS011;9649;51.042;13.804;2022-08-03T01:19:25;7.30;;;4.43;;
19032;SDS011;9649;51.042;13.804;2022-08-03T01:24:42;10.63;;;4.97;;
19032;SDS011;9649;51.042;13.804;2022-08-03T01:30:03;7.68;;;5.15;;
19032;SDS011;9649;51.042;13.804;2022-08-03T01:35:08;7.43;;;4.50;;
19032;SDS011;9649;51.042;13.804;2022-08-03T01:40:13;10.35;;;4.80;;
19032;SDS011;9649;51.042;13.804;2022-08-03T01:45:18;12.07;;;5.10;;
19032;SDS011;9649;51.042;13.804;2022-08-03T01:50:23;10.20;;;5.00;;
19032;SDS011;9649;51.042;13.804;2022-08-03T01:55:29;8.55;;;5.15;;
19032;SDS011;9649;51.042;13.804;2022-08-03T02:00:35;8.10;;;4.97;;
19032;SDS011;9649;51.042;13.804;2022-08-03T02:05:39;9.70;;;4.57;;
19032;SDS011;9649;51.042;13.804;2022-08-03T02:10:44;9.63;;;4.65;;
19032;SDS011;9649;51.042;13.804;2022-08-03T02:15:50;8.55;;;5.28;;
19032;SDS011;9649;51.042;13.804;2022-08-03T02:20:54;7.85;;;5.35;;
19032;SDS011;9649;51.042;13.804;2022-08-03T02:25:59;13.55;;;5.35;;
19032;SDS011;9649;51.042;13.804;2022-08-03T02:31:08;8.43;;;5.60;;
19032;SDS011;9649;51.042;13.804;2022-08-03T02:36:14;10.48;;;5.85;;
19032;SDS011;9649;51.042;13.804;2022-08-03T02:41:21;8.48;;;5.55;;
19032;SDS011;9649;51.042;13.804;2022-08-03T02:46:30;8.02;;;5.47;;
19032;SDS011;9649;51.042;13.804;2022-08-03T02:51:37;8.05;;;5.35;;
19032;SDS011;9649;51.042;13.804;2022-08-03T02:56:42;7.72;;;5.43;;
19032;SDS011;9649;51.042;13.804;2022-08-03T03:01:48;9.88;;;5.90;;
19032;SDS011;9649;51.042;13.804;2022-08-03T03:06:53;11.20;;;6.25;;
19032;SDS011;9649;51.042;13.804;2022-08-03T03:11:57;7.75;;;6.07;;
19032;SDS011;9649;51.042;13.804;2022-08-03T03:17:04;11.18;;;6.18;;
19032;SDS011;9649;51.042;13.804;2022-08-03T03:22:09;12.23;;;6.47;;
19032;SDS011;9649;51.042;13.804;2022-08-03T03:27:12;9.98;;;6.30;;
19032;SDS011;9649;51.042;13.804;2022-08-03T03:32:18;12.63;;;6.28;;
19032;SDS011;9649;51.042;13.804;2022-08-03T03:37:21;9.25;;;6.13;;
19032;SDS011;9649;51.042;13.804;2022-08-03T03:42:24;11.05;;;6.20;;
19032;SDS011;9649;51.042;13.804;2022-08-03T03:47:28;10.10;;;6.50;;
19032;SDS011;9649;51.042;13.804;2022-08-03T03:52:33;11.07;;;6.75;;
19032;SDS011;9649;51.042;13.804;2022-08-03T03:57:37;9.07;;;5.97;;
19032;SDS011;9649;51.042;13.804;2022-08-03T04:02:41;11.70;;;6.72;;
19032;SDS011;9649;51.042;13.804;2022-08-03T04:07:45;10.77;;;6.68;;
19032;SDS011;9649;51.042;13.804;2022-08-03T04:13:14;9.73;;;6.50;;
19032;SDS011;9649;51.042;13.804;2022-08-03T04:18:20;10.15;;;6.45;;
19032;SDS011;9649;51.042;13.804;2022-08-03T04:23:24;11.35;;;6.68;;
19032;SDS011;9649;51.042;13.804;2022-08-03T04:28:30;9.25;;;6.13;;
19032;SDS011;9649;51.042;13.804;2022-08-03T04:33:36;14.27;;;6.65;;
19032;SDS011;9649;51.042;13.804;2022-08-03T04:38:43;9.63;;;6.45;;
19032;SDS011;9649;51.042;13.804;2022-08-03T04:43:56;10.07;;;6.45;;
19032;SDS011;9649;51.042;13.804;2022-08-03T04:49:01;12.30;;;6.88;;
19032;SDS011;9649;51.042;13.804;2022-08-03T04:54:05;12.05;;;6.85;;
19032;SDS011;9649;51.042;13.804;2022-08-03T04:59:08;10.77;;;6.70;;
19032;SDS011;9649;51.042;13.804;2022-08-03T05:04:13;10.60;;;6.55;;
19032;SDS011;9649;51.042;13.804;2022-08-03T05:09:15;8.50;;;6.22;;
19032;SDS011;9649;51.042;13.804;2022-08-03T05:14:38;9.50;;;5.80;;
19032;SDS011;9649;51.042;13.804;2022-08-03T05:19:42;5.93;;;5.32;;
19032;SDS011;9649;51.042;13.804;2022-08-03T05:24:45;12.55;;;5.78;;
19032;SDS011;9649;51.042;13.804;2022-08-03T05:29:49;8.23;;;5.10;;
19032;SDS011;9649;51.042;13.804;2022-08-03T05:34:53;8.85;;;4.60;;
19032;SDS011;9649;51.042;13.804;2022-08-03T05:39:56;10.60;;;4.68;;
19032;SDS011;9649;51.042;13.804;2022-08-03T05:45:02;7.50;;;4.88;;
19032;SDS011;9649;51.042;13.804;2022-08-03T05:50:14;8.88;;;4.55;;
19032;SDS011;9649;51.042;13.804;2022-08-03T05:55:18;5.93;;;4.47;;
19032;SDS011;9649;51.042;13.804;2022-08-03T06:00:21;7.22;;;4.47;;
19032;SDS011;9649;51.042;13.804;2022-08-03T06:05:27;9.88;;;3.97;;
19032;SDS011;9649;51.042;13.804;2022-08-03T06:10:30;9.77;;;4.20;;
19032;SDS011;9649;51.042;13.804;2022-08-03T06:15:38;6.65;;;4.10;;
19032;SDS011;9649;51.042;13.804;2022-08-03T06:20:42;7.35;;;4.30;;
19032;SDS011;9649;51.042;13.804;2022-08-03T06:25:47;7.95;;;3.72;;
19032;SDS011;9649;51.042;13.804;2022-08-03T06:30:50;4.60;;;3.83;;
19032;SDS011;9649;51.042;13.804;2022-08-03T06:35:54;6.90;;;3.72;;
19032;SDS011;9649;51.042;13.804;2022-08-03T06:40:56;5.20;;;3.30;;
19032;SDS011;9649;51.042;13.804;2022-08-03T06:45:59;5.10;;;3.50;;
19032;SDS011;9649;51.042;13.804;2022-08-03T06:51:03;8.15;;;2.90;;
19032;SDS011;9649;51.042;13.804;2022-08-03T06:56:07;5.35;;;3.08;;
19032;SDS011;9649;51.042;13.804;2022-08-03T07:01:10;5.53;;;2.85;;
19032;SDS011;9649;51.042;13.804;2022-08-03T07:06:14;5.13;;;2.92;;
19032;SDS011;9649;51.042;13.804;2022-08-03T07:11:17;6.40;;;2.75;;
19032;SDS011;9649;51.042;13.804;2022-08-03T07:16:19;3.78;;;2.70;;
19032;SDS011;9649;51.042;13.804;2022-08-03T07:21:23;5.35;;;2.72;;
19032;SDS011;9649;51.042;13.804;2022-08-03T07:26:26;3.80;;;2.63;;
19032;SDS011;9649;51.042;13.804;2022-08-03T07:31:29;2.65;;;2.38;;
19032;SDS011;9649;51.042;13.804;2022-08-03T07:36:36;5.82;;;2.25;;
19032;SDS011;9649;51.042;13.804;2022-08-03T07:41:39;6.40;;;2.50;;
19032;SDS011;9649;51.042;13.804;2022-08-03T07:46:42;4.68;;;2.10;;
19032;SDS011;9649;51.042;13.804;2022-08-03T07:51:46;3.28;;;2.20;;
19032;SDS011;9649;51.042;13.804;2022-08-03T07:57:10;3.70;;;2.42;;
19032;SDS011;9649;51.042;13.804;2022-08-03T08:02:13;4.32;;;2.53;;
19032;SDS011;9649;51.042;13.804;2022-08-03T08:07:17;4.05;;;1.90;;
19032;SDS011;9649;51.042;13.804;2022-08-03T08:12:20;6.03;;;2.50;;
19032;SDS011;9649;51.042;13.804;2022-08-03T08:17:23;2.22;;;2.00;;
19032;SDS011;9649;51.042;13.804;2022-08-03T08:22:27;2.10;;;1.70;;
19032;SDS011;9649;51.042;13.804;2022-08-03T08:27:31;2.50;;;1.80;;
19032;SDS011;9649;51.042;13.804;2022-08-03T08:32:54;2.70;;;2.13;;
19032;SDS011;9649;51.042;13.804;2022-08-03T08:37:59;2.28;;;1.70;;
19032;SDS011;9649;51.042;13.804;2022-08-03T08:43:07;2.92;;;1.80;;
19032;SDS011;9649;51.042;13.804;2022-08-03T08:48:11;4.50;;;1.90;;
19032;SDS011;9649;51.042;13.804;2022-08-03T08:53:16;2.80;;;2.00;;
19032;SDS011;9649;51.042;13.804;2022-08-03T08:58:31;2.40;;;1.60;;
19032;SDS011;9649;51.042;13.804;2022-08-03T09:03:39;7.05;;;1.77;;
19032;SDS011;9649;51.042;13.804;2022-08-03T09:08:43;3.47;;;1.60;;
19032;SDS011;9649;51.042;13.804;2022-08-03T09:13:46;3.88;;;1.60;;
19032;SDS011;9649;51.042;13.804;2022-08-03T09:18:50;2.10;;;1.60;;
19032;SDS011;9649;51.042;13.804;2022-08-03T09:23:56;5.22;;;1.70;;
19032;SDS011;9649;51.042;13.804;2022-08-03T09:29:05;1.67;;;1.50;;
19032;SDS011;9649;51.042;13.804;2022-08-03T09:34:15;4.03;;;1.63;;
19032;SDS011;9649;51.042;13.804;2022-08-03T09:39:21;1.67;;;1.58;;
19032;SDS011;9649;51.042;13.804;2022-08-03T09:44:43;4.43;;;4.03;;
19032;SDS011;9649;51.042;13.804;2022-08-03T09:49:55;1.50;;;1.30;;
19032;SDS011;9649;51.042;13.804;2022-08-03T09:55:00;3.03;;;1.90;;
19032;SDS011;9649;51.042;13.804;2022-08-03T10:00:05;4.40;;;1.35;;
19032;SDS011;9649;51.042;13.804;2022-08-03T10:05:12;4.70;;;1.38;;
19032;SDS011;9649;51.042;13.804;2022-08-03T10:10:21;4.20;;;1.40;;
19032;SDS011;9649;51.042;13.804;2022-08-03T10:15:32;4.53;;;1.23;;
19032;SDS011;9649;51.042;13.804;2022-08-03T10:20:57;2.72;;;1.30;;
19032;SDS011;9649;51.042;13.804;2022-08-03T10:26:06;3.70;;;1.38;;
19032;SDS011;9649;51.042;13.804;2022-08-03T10:31:09;4.43;;;1.40;;
19032;SDS011;9649;51.042;13.804;2022-08-03T10:36:14;1.83;;;1.30;;
19032;SDS011;9649;51.042;13.804;2022-08-03T10:41:19;4.25;;;1.30;;
19032;SDS011;9649;51.042;13.804;2022-08-03T10:46:22;5.40;;;1.33;;
19032;SDS011;9649;51.042;13.804;2022-08-03T10:51:27;2.88;;;1.30;;
19032;SDS011;9649;51.042;13.804;2022-08-03T10:56:40;2.58;;;1.20;;
19032;SDS011;9649;51.042;13.804;2022-08-03T11:02:15;3.55;;;1.17;;
19032;SDS011;9649;51.042;13.804;2022-08-03T11:07:18;3.13;;;1.30;;
19032;SDS011;9649;51.042;13.804;2022-08-03T11:12:26;1.58;;;1.27;;
19032;SDS011;9649;51.042;13.804;2022-08-03T11:17:32;2.50;;;1.30;;
19032;SDS011;9649;51.042;13.804;2022-08-03T11:22:55;3.72;;;1.40;;
19032;SDS011;9649;51.042;13.804;2022-08-03T11:28:25;1.50;;;1.40;;
19032;SDS011;9649;51.042;13.804;2022-08-03T11:33:29;2.80;;;1.45;;
19032;SDS011;9649;51.042;13.804;2022-08-03T11:38:32;4.57;;;1.40;;
19032;SDS011;9649;51.042;13.804;2022-08-03T11:43:46;2.83;;;1.67;;
19032;SDS011;9649;51.042;13.804;2022-08-03T11:48:49;5.50;;;1.60;;
19032;SDS011;9649;51.042;13.804;2022-08-03T11:53:53;5.10;;;1.40;;
19032;SDS011;9649;51.042;13.804;2022-08-03T11:58:58;1.77;;;1.20;;
19032;SDS011;9649;51.042;13.804;2022-08-03T12:04:20;2.05;;;1.30;;
19032;SDS011;9649;51.042;13.804;2022-08-03T12:09:23;3.97;;;1.48;;
19032;SDS011;9649;51.042;13.804;2022-08-03T12:14:27;5.13;;;1.23;;
19032;SDS011;9649;51.042;13.804;2022-08-03T12:19:50;1.30;;;1.13;;
19032;SDS011;9649;51.042;13.804;2022-08-03T12:24:53;12.23;;;1.60;;
19032;SDS011;9649;51.042;13.804;2022-08-03T12:29:57;3.05;;;1.20;;
19032;SDS011;9649;51.042;13.804;2022-08-03T12:35:30;2.22;;;1.30;;
19032;SDS011;9649;51.042;13.804;2022-08-03T12:41:46;1.42;;;1.23;;
19032;SDS011;9649;51.042;13.804;2022-08-03T12:47:24;6.22;;;1.65;;
19032;SDS011;9649;51.042;13.804;2022-08-03T12:53:46;5.05;;;2.10;;
19032;SDS011;9649;51.042;13.804;2022-08-03T12:59:31;2.47;;;1.30;;
19032;SDS011;9649;51.042;13.804;2022-08-03T13:05:23;4.13;;;1.50;;
19032;SDS011;9649;51.042;13.804;2022-08-03T13:11:11;3.47;;;1.20;;
19032;SDS011;9649;51.042;13.804;2022-08-03T14:21:11;4.38;;;1.65;;
19032;SDS011;9649;51.042;13.804;2022-08-03T14:26:21;4.93;;;1.10;;
19032;SDS011;9649;51.042;13.804;2022-08-03T14:31:39;2.80;;;1.02;;
19032;SDS011;9649;51.042;13.804;2022-08-03T14:37:20;1.40;;;1.17;;
19032;SDS011;9649;51.042;13.804;2022-08-03T14:43:14;2.90;;;1.60;;
19032;SDS011;9649;51.042;13.804;2022-08-03T14:49:07;6.15;;;1.15;;
19032;SDS011;9649;51.042;13.804;2022-08-03T14:55:15;2.30;;;1.00;;
19032;SDS011;9649;51.042;13.804;2022-08-03T15:00:59;3.17;;;0.93;;
19032;SDS011;9649;51.042;13.804;2022-08-03T15:06:48;1.77;;;1.23;;
19032;SDS011;9649;51.042;13.804;2022-08-03T15:19:14;3.95;;;1.30;;
19032;SDS011;9649;51.042;13.804;2022-08-03T15:31:18;2.67;;;1.15;;
19032;SDS011;9649;51.042;13.804;2022-08-03T15:37:30;3.80;;;1.30;;
19032;SDS011;9649;51.042;13.804;2022-08-03T15:44:37;1.58;;;1.00;;
19032;SDS011;9649;51.042;13.804;2022-08-03T15:49:58;2.60;;;1.65;;
19032;SDS011;9649;51.042;13.804;2022-08-03T15:55:24;6.22;;;1.50;;
19032;SDS011;9649;51.042;13.804;2022-08-03T16:13:43;2.95;;;1.48;;
19032;SDS011;9649;51.042;13.804;2022-08-03T16:19:39;10.88;;;3.05;;
19032;SDS011;9649;51.042;13.804;2022-08-03T16:24:48;3.25;;;1.60;;
19032;SDS011;9649;51.042;13.804;2022-08-03T16:29:51;1.58;;;1.48;;
19032;SDS011;9649;51.042;13.804;2022-08-03T16:34:54;1.58;;;1.48;;
19032;SDS011;9649;51.042;13.804;2022-08-03T16:40:09;2.38;;;1.60;;
19032;SDS011;9649;51.042;13.804;2022-08-03T16:45:37;4.72;;;1.25;;
19032;SDS011;9649;51.042;13.804;2022-08-03T16:50:50;6.18;;;1.80;;
19032;SDS011;9649;51.042;13.804;2022-08-03T17:02:31;3.00;;;1.65;;
19032;SDS011;9649;51.042;13.804;2022-08-03T17:39:30;3.70;;;1.63;;
19032;SDS011;9649;51.042;13.804;2022-08-03T17:45:25;4.18;;;1.98;;
19032;SDS011;9649;51.042;13.804;2022-08-03T17:57:02;2.38;;;1.85;;
19032;SDS011;9649;51.042;13.804;2022-08-03T18:03:36;2.70;;;2.08;;
19032;SDS011;9649;51.042;13.804;2022-08-03T18:40:48;10.32;;;2.17;;
19032;SDS011;9649;51.042;13.804;2022-08-03T18:45:58;3.65;;;2.08;;
19032;SDS011;9649;51.042;13.804;2022-08-03T18:51:17;4.30;;;2.17;;
19032;SDS011;9649;51.042;13.804;2022-08-03T20:11:11;3.35;;;2.50;;
19032;SDS011;9649;51.042;13.804;2022-08-03T20:16:29;4.88;;;2.33;;
19032;SDS011;9649;51.042;13.804;2022-08-03T21:49:08;4.25;;;2.60;;
19032;SDS011;9649;51.042;13.804;2022-08-03T21:55:13;7.75;;;2.45;;
19032;SDS011;9649;51.042;13.804;2022-08-03T22:13:51;4.75;;;2.83;;
19032;SDS011;9649;51.042;13.804;2022-08-03T22:18:54;3.47;;;2.97;;
19032;SDS011;9649;51.042;13.804;2022-08-03T22:23:58;6.43;;;2.97;;
19032;SDS011;9649;51.042;13.804;2022-08-03T22:29:05;7.60;;;3.15;;
19032;SDS011;9649;51.042;13.804;2022-08-03T22:34:09;8.60;;;2.97;;
19032;SDS011;9649;51.042;13.804;2022-08-03T22:39:15;3.83;;;2.88;;
19032;SDS011;9649;51.042;13.804;2022-08-03T22:44:26;3.75;;;2.90;;
19032;SDS011;9649;51.042;13.804;2022-08-03T22:49:30;4.03;;;2.88;;
19032;SDS011;9649;51.042;13.804;2022-08-03T23:01:21;4.50;;;3.30;;
19032;SDS011;9649;51.042;13.804;2022-08-03T23:13:56;5.65;;;3.58;;
19032;SDS011;9649;51.042;13.804;2022-08-03T23:25:50;5.88;;;3.28;;
19032;SDS011;9649;51.042;13.804;2022-08-03T23:31:15;7.63;;;3.50;;
19032;SDS011;9649;51.042;13.804;2022-08-03T23:36:52;6.93;;;3.67;;
19032;SDS011;9649;51.042;13.804;2022-08-03T23:42:22;6.07;;;3.22;;
19032;SDS011;9649;51.042;13.804;2022-08-03T23:48:30;8.20;;;3.60;;
19032;SDS011;9649;51.042;13.804;2022-08-03T23:54:18;6.72;;;3.33;;
